sensor_id;sensor_type;location;lat;lon;timestamp;temperature;humidity
51968;DHT22;75327;42.568;23.176;2024-03-02T00:12:58;6.00;99.90
51968;DHT22;75327;42.568;23.176;2024-03-02T00:28:00;5.90;99.90
51968;DHT22;75327;42.568;23.176;2024-03-02T00:43:03;5.90;99.90
51968;DHT22;75327;42.568;23.176;2024-03-02T00:58:06;5.90;99.90
51968;DHT22;75327;42.568;23.176;2024-03-02T01:13:08;5.90;99.90
51968;DHT22;75327;42.568;23.176;2024-03-02T01:28:11;5.80;99.90
51968;DHT22;75327;42.568;23.176;2024-03-02T01:43:13;5.80;99.90
51968;DHT22;75327;42.568;23.176;2024-03-02T01:58:16;5.80;99.90
51968;DHT22;75327;42.568;23.176;2024-03-02T02:13:18;5.80;99.90
51968;DHT22;75327;42.568;23.176;2024-03-02T02:28:20;5.80;99.90
51968;DHT22;75327;42.568;23.176;2024-03-02T02:43:23;5.80;99.90
51968;DHT22;75327;42.568;23.176;2024-03-02T02:58:25;5.70;99.90
51968;DHT22;75327;42.568;23.176;2024-03-02T03:13:27;5.70;99.90
51968;DHT22;75327;42.568;23.176;2024-03-02T03:28:29;5.60;99.90
51968;DHT22;75327;42.568;23.176;2024-03-02T03:43:32;5.60;99.90
51968;DHT22;75327;42.568;23.176;2024-03-02T03:58:34;5.60;99.90
51968;DHT22;75327;42.568;23.176;2024-03-02T04:13:36;5.60;99.90
51968;DHT22;75327;42.568;23.176;2024-03-02T04:28:38;5.60;99.90
51968;DHT22;75327;42.568;23.176;2024-03-02T04:43:41;5.60;99.90
51968;DHT22;75327;42.568;23.176;2024-03-02T04:58:42;5.60;99.90
51968;DHT22;75327;42.568;23.176;2024-03-02T05:13:45;5.60;99.90
51968;DHT22;75327;42.568;23.176;2024-03-02T05:28:47;5.60;99.90
51968;DHT22;75327;42.568;23.176;2024-03-02T05:43:49;5.60;99.90
51968;DHT22;75327;42.568;23.176;2024-03-02T05:58:51;5.60;99.90
51968;DHT22;75327;42.568;23.176;2024-03-02T06:14:10;5.60;99.90
51968;DHT22;75327;42.568;23.176;2024-03-02T06:29:12;5.60;99.90
51968;DHT22;75327;42.568;23.176;2024-03-02T06:44:14;5.70;99.90
51968;DHT22;75327;42.568;23.176;2024-03-02T06:59:16;5.80;99.90
51968;DHT22;75327;42.568;23.176;2024-03-02T07:14:18;5.80;99.90
51968;DHT22;75327;42.568;23.176;2024-03-02T07:29:20;5.90;99.90
51968;DHT22;75327;42.568;23.176;2024-03-02T07:44:23;5.90;99.90
51968;DHT22;75327;42.568;23.176;2024-03-02T07:59:27;6.00;99.90
51968;DHT22;75327;42.568;23.176;2024-03-02T08:14:32;6.10;99.90
51968;DHT22;75327;42.568;23.176;2024-03-02T08:29:34;6.30;99.90
51968;DHT22;75327;42.568;23.176;2024-03-02T08:44:37;6.40;99.90
51968;DHT22;75327;42.568;23.176;2024-03-02T08:59:40;6.30;99.90
51968;DHT22;75327;42.568;23.176;2024-03-02T09:14:42;6.30;99.90
51968;DHT22;75327;42.568;23.176;2024-03-02T09:29:44;6.30;99.90
51968;DHT22;75327;42.568;23.176;2024-03-02T09:44:47;6.40;99.90
51968;DHT22;75327;42.568;23.176;2024-03-02T09:59:49;6.40;99.90
51968;DHT22;75327;42.568;23.176;2024-03-02T10:15:03;6.30;99.90
51968;DHT22;75327;42.568;23.176;2024-03-02T10:30:06;6.30;99.90
51968;DHT22;75327;42.568;23.176;2024-03-02T10:45:15;6.40;99.90
51968;DHT22;75327;42.568;23.176;2024-03-02T11:00:18;6.50;99.90
51968;DHT22;75327;42.568;23.176;2024-03-02T11:15:27;6.40;99.90
51968;DHT22;75327;42.568;23.176;2024-03-02T11:45:37;6.40;99.90
51968;DHT22;75327;42.568;23.176;2024-03-02T12:00:44;6.50;99.90
51968;DHT22;75327;42.568;23.176;2024-03-02T12:15:47;6.60;99.90
51968;DHT22;75327;42.568;23.176;2024-03-02T12:30:50;6.70;99.90
51968;DHT22;75327;42.568;23.176;2024-03-02T12:45:53;7.00;99.90
51968;DHT22;75327;42.568;23.176;2024-03-02T13:01:10;7.10;99.90
51968;DHT22;75327;42.568;23.176;2024-03-02T13:16:13;7.30;99.90
51968;DHT22;75327;42.568;23.176;2024-03-02T13:31:15;7.40;99.90
51968;DHT22;75327;42.568;23.176;2024-03-02T13:46:17;7.40;99.90
51968;DHT22;75327;42.568;23.176;2024-03-02T14:01:20;7.60;99.90
51968;DHT22;75327;42.568;23.176;2024-03-02T14:16:22;7.50;99.90
51968;DHT22;75327;42.568;23.176;2024-03-02T14:31:24;7.40;99.90
51968;DHT22;75327;42.568;23.176;2024-03-02T14:46:26;7.50;99.90
51968;DHT22;75327;42.568;23.176;2024-03-02T15:01:28;7.60;99.90
51968;DHT22;75327;42.568;23.176;2024-03-02T15:16:31;7.50;99.90
51968;DHT22;75327;42.568;23.176;2024-03-02T15:31:33;7.40;99.90
51968;DHT22;75327;42.568;23.176;2024-03-02T15:46:36;7.40;99.90
51968;DHT22;75327;42.568;23.176;2024-03-02T16:01:38;7.30;99.90
51968;DHT22;75327;42.568;23.176;2024-03-02T16:16:41;7.20;99.90
51968;DHT22;75327;42.568;23.176;2024-03-02T16:31:43;7.00;99.90
51968;DHT22;75327;42.568;23.176;2024-03-02T16:46:46;6.90;99.90
51968;DHT22;75327;42.568;23.176;2024-03-02T17:01:49;6.60;99.90
51968;DHT22;75327;42.568;23.176;2024-03-02T17:16:52;6.30;99.90
51968;DHT22;75327;42.568;23.176;2024-03-02T17:31:54;6.00;99.90
51968;DHT22;75327;42.568;23.176;2024-03-02T17:46:57;5.80;99.90
51968;DHT22;75327;42.568;23.176;2024-03-02T18:02:00;5.50;99.90
51968;DHT22;75327;42.568;23.176;2024-03-02T18:17:04;5.30;99.90
51968;DHT22;75327;42.568;23.176;2024-03-02T18:32:06;5.20;99.90
51968;DHT22;75327;42.568;23.176;2024-03-02T18:47:08;4.90;99.90
51968;DHT22;75327;42.568;23.176;2024-03-02T19:02:12;4.70;99.90
51968;DHT22;75327;42.568;23.176;2024-03-02T19:17:15;4.50;99.90
51968;DHT22;75327;42.568;23.176;2024-03-02T19:32:17;4.40;99.90
51968;DHT22;75327;42.568;23.176;2024-03-02T19:47:23;4.30;99.90
51968;DHT22;75327;42.568;23.176;2024-03-02T20:02:25;4.20;99.90
51968;DHT22;75327;42.568;23.176;2024-03-02T20:17:29;4.10;99.90
51968;DHT22;75327;42.568;23.176;2024-03-02T20:32:31;4.10;99.90
51968;DHT22;75327;42.568;23.176;2024-03-02T20:47:33;4.10;99.90
51968;DHT22;75327;42.568;23.176;2024-03-02T21:02:36;4.20;99.90
51968;DHT22;75327;42.568;23.176;2024-03-02T21:17:38;4.20;99.90
51968;DHT22;75327;42.568;23.176;2024-03-02T21:32:40;4.40;99.90
51968;DHT22;75327;42.568;23.176;2024-03-02T21:47:43;4.50;99.90
51968;DHT22;75327;42.568;23.176;2024-03-02T22:02:46;4.50;99.90
51968;DHT22;75327;42.568;23.176;2024-03-02T22:17:48;4.60;99.90
51968;DHT22;75327;42.568;23.176;2024-03-02T22:32:51;4.60;99.90
51968;DHT22;75327;42.568;23.176;2024-03-02T22:47:53;4.60;99.90
51968;DHT22;75327;42.568;23.176;2024-03-02T23:02:57;4.50;99.90
51968;DHT22;75327;42.568;23.176;2024-03-02T23:17:59;4.50;99.90
51968;DHT22;75327;42.568;23.176;2024-03-02T23:33:01;4.60;99.90
51968;DHT22;75327;42.568;23.176;2024-03-02T23:48:06;4.60;99.90
